createdAt,value
2018-07-19T00:00:50.508Z,3.20
2018-07-19T00:03:19.741Z,3.00
2018-07-19T00:05:49.013Z,2.97
2018-07-19T00:08:18.961Z,3.30
2018-07-19T00:10:48.208Z,3.10
2018-07-19T00:13:17.484Z,3.00
2018-07-19T00:15:46.780Z,3.17
2018-07-19T00:18:15.980Z,3.10
2018-07-19T00:20:45.216Z,3.00
2018-07-19T00:23:14.446Z,3.20
2018-07-19T00:25:44.327Z,3.20
2018-07-19T00:28:13.556Z,3.47
2018-07-19T00:30:42.720Z,3.20
2018-07-19T00:33:11.952Z,3.33
2018-07-19T00:35:41.217Z,3.10
2018-07-19T00:38:10.473Z,3.00
2018-07-19T00:40:39.705Z,3.20
2018-07-19T00:43:08.981Z,3.10
2018-07-19T00:45:38.208Z,3.40
2018-07-19T00:48:07.789Z,3.47
2018-07-19T00:50:37.185Z,3.53
2018-07-19T00:53:06.412Z,3.13
2018-07-19T00:55:35.649Z,3.50
2018-07-19T00:58:04.958Z,3.50
2018-07-19T01:00:34.258Z,3.20
2018-07-19T01:03:03.549Z,3.33
2018-07-19T01:05:32.846Z,3.10
2018-07-19T01:08:02.070Z,3.37
2018-07-19T01:10:31.347Z,3.50
2018-07-19T01:13:00.605Z,3.50
2018-07-19T01:15:29.946Z,3.27
2018-07-19T01:17:59.108Z,3.30
2018-07-19T01:20:28.340Z,3.30
2018-07-19T01:22:57.665Z,3.60
2018-07-19T01:25:27.150Z,3.80
2018-07-19T01:27:56.424Z,3.60
2018-07-19T01:30:25.672Z,3.80
2018-07-19T01:32:54.902Z,3.90
2018-07-19T01:35:24.100Z,4.10
2018-07-19T01:37:53.288Z,4.13
2018-07-19T01:40:22.496Z,4.30
2018-07-19T01:42:51.641Z,4.13
2018-07-19T01:45:20.884Z,4.17
2018-07-19T01:47:50.231Z,4.20
2018-07-19T01:50:19.541Z,4.20
2018-07-19T01:52:48.788Z,4.17
2018-07-19T01:55:18.038Z,4.00
2018-07-19T01:57:47.312Z,4.10
2018-07-19T02:00:16.576Z,4.23
2018-07-19T02:02:45.834Z,4.47
2018-07-19T02:05:15.075Z,4.33
2018-07-19T02:07:44.286Z,4.23
2018-07-19T02:10:14.400Z,4.50
2018-07-19T02:12:43.733Z,4.50
2018-07-19T02:15:13.091Z,4.57
2018-07-19T02:17:42.337Z,4.77
2018-07-19T02:20:11.618Z,4.60
2018-07-19T02:22:40.872Z,4.33
2018-07-19T02:25:10.128Z,4.60
2018-07-19T02:27:39.437Z,4.13
2018-07-19T02:30:08.737Z,4.40
2018-07-19T02:32:37.996Z,4.40
2018-07-19T02:35:07.303Z,4.10
2018-07-19T02:37:36.552Z,4.43
2018-07-19T02:40:05.920Z,4.80
2018-07-19T02:42:35.224Z,4.63
2018-07-19T02:45:04.529Z,4.67
2018-07-19T02:47:34.056Z,4.97
2018-07-19T02:50:03.435Z,4.40
2018-07-19T02:52:32.733Z,4.30
2018-07-19T02:55:02.000Z,4.43
2018-07-19T02:57:31.228Z,4.60
2018-07-19T03:00:00.527Z,5.10
2018-07-19T03:02:30.056Z,5.10
2018-07-19T03:04:59.227Z,4.70
2018-07-19T03:07:28.573Z,4.53
2018-07-19T03:09:57.780Z,4.90
2018-07-19T03:12:26.984Z,4.90
2018-07-19T03:14:56.324Z,4.60
2018-07-19T03:17:25.586Z,4.90
2018-07-19T03:19:54.819Z,5.03
2018-07-19T03:22:24.020Z,5.90
2018-07-19T03:24:53.443Z,5.97
2018-07-19T03:27:22.678Z,6.60
2018-07-19T03:29:52.044Z,7.97
2018-07-19T03:32:21.295Z,7.87
2018-07-19T03:34:50.557Z,7.43
2018-07-19T03:37:19.822Z,5.50
2018-07-19T03:39:49.139Z,4.30
2018-07-19T03:42:18.389Z,4.90
2018-07-19T03:44:47.618Z,4.97
2018-07-19T03:47:16.829Z,5.40
2018-07-19T03:49:46.053Z,6.00
2018-07-19T03:52:15.307Z,5.90
2018-07-19T03:54:44.503Z,6.13
2018-07-19T03:57:13.757Z,6.20
2018-07-19T03:59:42.997Z,6.03
2018-07-19T04:02:12.425Z,5.73
2018-07-19T04:04:41.706Z,6.00
2018-07-19T04:07:11.105Z,5.90
2018-07-19T04:09:40.304Z,6.50
2018-07-19T04:12:09.573Z,6.30
2018-07-19T04:14:38.900Z,6.40
2018-07-19T04:17:08.223Z,6.30
2018-07-19T04:19:37.405Z,6.33
2018-07-19T04:22:07.026Z,6.70
2018-07-19T04:24:36.741Z,5.77
2018-07-19T04:27:06.176Z,5.83
2018-07-19T04:29:35.367Z,6.03
2018-07-19T04:32:04.572Z,6.20
2018-07-19T04:34:33.752Z,6.03
2018-07-19T04:37:03.199Z,6.00
2018-07-19T04:39:32.428Z,6.03
2018-07-19T04:42:01.657Z,6.53
2018-07-19T04:44:30.906Z,5.50
2018-07-19T04:47:01.011Z,5.80
2018-07-19T04:49:31.883Z,5.90
2018-07-19T04:52:02.033Z,5.10
2018-07-19T04:54:31.249Z,5.00
2018-07-19T04:57:00.477Z,5.47
2018-07-19T04:59:30.277Z,5.77
2018-07-19T05:01:59.598Z,5.00
2018-07-19T05:04:28.833Z,4.83
2018-07-19T05:06:58.076Z,5.40
2018-07-19T05:09:27.332Z,4.90
2018-07-19T05:11:56.577Z,4.83
2018-07-19T05:14:25.849Z,5.10
2018-07-19T05:16:55.113Z,4.47
2018-07-19T05:19:24.328Z,4.57
2018-07-19T05:21:53.594Z,4.67
2018-07-19T05:24:22.876Z,4.60
2018-07-19T05:26:52.168Z,4.47
2018-07-19T05:29:21.420Z,4.60
2018-07-19T05:31:50.776Z,4.23
2018-07-19T05:34:19.969Z,4.70
2018-07-19T05:36:49.165Z,4.10
2018-07-19T05:39:18.453Z,3.87
2018-07-19T05:41:47.890Z,4.33
2018-07-19T05:44:17.128Z,4.23
2018-07-19T05:46:46.572Z,4.30
2018-07-19T05:49:15.729Z,3.93
2018-07-19T05:51:44.959Z,4.33
2018-07-19T05:54:14.213Z,4.03
2018-07-19T05:56:43.460Z,3.77
2018-07-19T05:59:12.717Z,4.17
2018-07-19T06:01:41.974Z,4.03
2018-07-19T06:04:11.209Z,4.20
2018-07-19T06:06:40.525Z,4.37
2018-07-19T06:09:11.130Z,3.73
2018-07-19T06:11:40.716Z,3.77
2018-07-19T06:14:10.056Z,3.97
2018-07-19T06:16:39.422Z,3.77
2018-07-19T06:19:08.724Z,3.70
2018-07-19T06:21:38.007Z,3.90
2018-07-19T06:24:07.249Z,3.40
2018-07-19T06:26:36.513Z,3.50
2018-07-19T06:29:05.744Z,3.17
2018-07-19T06:31:35.073Z,3.63
2018-07-19T06:34:04.309Z,3.83
2018-07-19T06:36:33.581Z,3.80
2018-07-19T06:39:02.874Z,3.50
2018-07-19T06:41:32.151Z,3.37
2018-07-19T06:44:01.341Z,3.20
2018-07-19T06:46:30.712Z,3.40
2018-07-19T06:48:59.931Z,2.90
2018-07-19T06:51:29.204Z,2.80
2018-07-19T06:53:58.427Z,2.30
2018-07-19T06:56:28.495Z,1.90
2018-07-19T06:58:57.648Z,1.53
2018-07-19T07:01:26.860Z,1.60
2018-07-19T07:03:56.263Z,1.50
2018-07-19T07:06:25.560Z,1.80
2018-07-19T07:08:54.705Z,1.43
2018-07-19T07:11:24.071Z,1.80
2018-07-19T07:13:53.380Z,1.67
2018-07-19T07:16:22.674Z,1.60
2018-07-19T07:18:51.996Z,1.70
2018-07-19T07:21:21.441Z,1.60
2018-07-19T07:23:51.576Z,1.43
2018-07-19T07:26:20.986Z,1.80
2018-07-19T07:28:50.310Z,1.70
2018-07-19T07:31:19.743Z,1.67
2018-07-19T07:33:49.242Z,1.80
2018-07-19T07:36:18.585Z,1.60
2018-07-19T07:38:47.998Z,1.60
2018-07-19T07:41:17.197Z,1.63
2018-07-19T07:43:46.692Z,1.67
2018-07-19T07:46:15.880Z,1.60
2018-07-19T07:48:45.078Z,1.67
2018-07-19T07:51:14.588Z,1.50
2018-07-19T07:53:43.942Z,1.62
2018-07-19T07:56:13.464Z,1.70
2018-07-19T07:58:42.921Z,1.45
2018-07-19T08:01:12.336Z,1.50
2018-07-19T08:03:42.671Z,1.50
2018-07-19T08:06:11.886Z,1.60
2018-07-19T08:08:41.179Z,1.47
2018-07-19T08:11:10.463Z,1.60
2018-07-19T08:13:39.779Z,1.32
2018-07-19T08:16:09.058Z,1.40
2018-07-19T08:18:38.312Z,1.72
2018-07-19T08:21:07.779Z,1.32
2018-07-19T08:23:37.177Z,1.67
2018-07-19T08:26:06.576Z,1.55
2018-07-19T08:28:36.081Z,1.30
2018-07-19T08:31:05.695Z,1.75
2018-07-19T08:33:35.193Z,1.55
2018-07-19T08:36:05.180Z,1.40
2018-07-19T08:38:34.518Z,1.65
2018-07-19T08:41:03.915Z,1.50
2018-07-19T08:43:33.406Z,1.50
2018-07-19T08:46:03.540Z,1.90
2018-07-19T08:48:32.840Z,1.60
2018-07-19T08:51:02.138Z,1.35
2018-07-19T08:53:31.369Z,1.60
2018-07-19T08:58:28.858Z,1.70
2018-07-19T09:00:58.401Z,1.60
2018-07-19T09:03:27.923Z,1.70
2018-07-19T09:05:57.422Z,2.00
2018-07-19T09:08:26.814Z,1.50
2018-07-19T09:10:56.386Z,1.47
2018-07-19T09:13:25.727Z,1.77
2018-07-19T09:15:55.131Z,1.80
2018-07-19T09:18:24.524Z,2.83
2018-07-19T09:20:53.773Z,1.90
2018-07-19T09:23:23.222Z,1.67
2018-07-19T09:25:52.709Z,1.70
2018-07-19T09:28:22.248Z,1.70
2018-07-19T09:30:51.753Z,1.60
2018-07-19T09:33:21.028Z,1.52
2018-07-19T09:35:50.636Z,1.75
2018-07-19T09:38:20.456Z,1.80
2018-07-19T09:40:49.750Z,1.77
2018-07-19T09:43:19.083Z,1.70
2018-07-19T09:45:48.560Z,1.90
2018-07-19T09:48:17.807Z,1.87
2018-07-19T09:50:47.374Z,1.90
2018-07-19T09:53:16.632Z,2.00
2018-07-19T09:55:45.874Z,1.82
2018-07-19T09:58:15.106Z,2.00
2018-07-19T10:00:49.899Z,1.92
2018-07-19T10:03:19.173Z,1.95
2018-07-19T10:05:49.011Z,1.90
2018-07-19T10:08:18.246Z,1.77
2018-07-19T10:10:47.766Z,1.80
2018-07-19T10:13:17.260Z,1.90
2018-07-19T10:15:46.721Z,2.00
2018-07-19T10:18:15.973Z,1.82
2018-07-19T10:20:45.150Z,2.00
2018-07-19T10:23:14.400Z,1.77
2018-07-19T10:25:43.689Z,2.05
2018-07-19T10:28:13.084Z,2.08
2018-07-19T10:30:42.289Z,1.80
2018-07-19T10:33:11.448Z,2.00
2018-07-19T10:35:40.799Z,2.00
2018-07-19T10:38:10.107Z,2.30
2018-07-19T10:40:39.312Z,1.87
2018-07-19T10:43:09.005Z,2.10
2018-07-19T10:45:38.244Z,2.00
2018-07-19T10:48:07.465Z,2.00
2018-07-19T10:50:36.710Z,2.08
2018-07-19T10:53:05.877Z,2.10
2018-07-19T10:55:35.191Z,2.10
2018-07-19T10:58:04.554Z,1.90
2018-07-19T11:00:33.744Z,2.10
2018-07-19T11:03:02.970Z,1.92
2018-07-19T11:05:32.129Z,2.00
2018-07-19T11:08:01.605Z,2.20
2018-07-19T11:10:30.780Z,2.40
2018-07-19T11:13:00.021Z,2.08
2018-07-19T11:15:29.225Z,2.12
2018-07-19T11:17:58.388Z,2.08
2018-07-19T11:20:27.636Z,2.20
2018-07-19T11:22:56.852Z,2.10
2018-07-19T11:25:26.014Z,2.27
2018-07-19T11:27:55.267Z,2.08
2018-07-19T11:30:24.687Z,2.15
2018-07-19T11:32:53.986Z,1.98
2018-07-19T11:35:23.421Z,2.00
2018-07-19T11:37:52.705Z,2.30
2018-07-19T11:40:22.529Z,2.10
2018-07-19T11:42:51.982Z,2.33
2018-07-19T11:45:21.250Z,1.95
2018-07-19T11:47:50.688Z,2.42
2018-07-19T11:50:19.956Z,2.40
2018-07-19T11:52:49.317Z,2.70
2018-07-19T11:55:18.707Z,2.15
2018-07-19T11:57:48.109Z,2.30
2018-07-19T12:00:17.407Z,2.50
2018-07-19T12:02:46.913Z,2.40
2018-07-19T12:05:16.419Z,2.40
2018-07-19T12:07:45.874Z,2.37
2018-07-19T12:10:15.326Z,2.42
2018-07-19T12:12:44.815Z,2.33
2018-07-19T12:15:14.332Z,2.10
2018-07-19T12:17:44.333Z,2.40
2018-07-19T12:20:13.647Z,2.42
2018-07-19T12:22:43.155Z,2.05
2018-07-19T12:25:12.447Z,2.20
2018-07-19T12:27:41.965Z,2.30
2018-07-19T12:30:12.077Z,2.55
2018-07-19T12:32:41.670Z,2.35
2018-07-19T12:35:11.067Z,2.40
2018-07-19T12:37:40.591Z,2.20
2018-07-19T12:40:09.892Z,2.45
2018-07-19T12:42:39.882Z,2.65
2018-07-19T12:45:09.302Z,2.20
2018-07-19T12:47:38.711Z,2.30
2018-07-19T12:50:07.993Z,2.30
2018-07-19T12:52:37.404Z,2.60
2018-07-19T12:55:06.706Z,2.30
2018-07-19T12:57:36.107Z,2.22
2018-07-19T13:00:06.136Z,2.30
2018-07-19T13:02:35.637Z,2.40
2018-07-19T13:05:05.242Z,2.30
2018-07-19T13:07:34.669Z,2.37
2018-07-19T13:10:04.149Z,2.50
2018-07-19T13:12:34.217Z,2.40
2018-07-19T13:15:03.895Z,2.58
2018-07-19T13:17:33.252Z,2.40
2018-07-19T13:20:02.630Z,2.30
2018-07-19T13:22:32.198Z,2.40
2018-07-19T13:25:02.137Z,2.45
2018-07-19T13:27:31.365Z,2.47
2018-07-19T13:30:00.644Z,2.30
2018-07-19T13:32:29.876Z,2.12
2018-07-19T13:34:59.201Z,2.33
2018-07-19T13:37:28.553Z,2.30
2018-07-19T13:39:57.848Z,2.15
2018-07-19T13:42:27.195Z,2.33
2018-07-19T13:44:56.552Z,2.10
2018-07-19T13:47:25.998Z,2.40
2018-07-19T13:49:55.117Z,2.20
2018-07-19T13:53:39.611Z,2.15
2018-07-19T13:56:09.483Z,2.50
2018-07-19T13:58:39.281Z,2.20
2018-07-19T14:01:08.887Z,2.08
2018-07-19T14:03:38.494Z,2.25
2018-07-19T14:06:08.770Z,2.22
2018-07-19T14:08:38.017Z,2.37
2018-07-19T14:11:07.313Z,2.33
2018-07-19T14:13:36.704Z,2.20
2018-07-19T14:16:06.006Z,2.40
2018-07-19T14:18:35.428Z,2.25
2018-07-19T14:21:04.628Z,2.37
2018-07-19T14:23:33.808Z,2.30
2018-07-19T14:26:03.215Z,2.50
2018-07-19T14:28:33.124Z,2.17
2018-07-19T14:31:02.349Z,1.95
2018-07-19T14:33:31.629Z,2.40
2018-07-19T14:36:00.848Z,2.12
2018-07-19T14:38:30.097Z,2.40
2018-07-19T14:40:59.381Z,2.30
2018-07-19T14:43:28.556Z,2.33
2018-07-19T14:45:57.813Z,2.37
2018-07-19T14:48:27.058Z,2.30
2018-07-19T14:50:56.311Z,2.40
2018-07-19T14:53:25.612Z,2.30
2018-07-19T14:55:54.760Z,2.20
2018-07-19T14:58:24.067Z,2.00
2018-07-19T15:00:53.257Z,2.10
2018-07-19T15:03:22.710Z,2.12
2018-07-19T15:05:52.006Z,2.12
2018-07-19T15:08:21.181Z,2.15
2018-07-19T15:10:51.214Z,2.20
2018-07-19T15:13:20.520Z,2.20
2018-07-19T15:15:49.905Z,2.40
2018-07-19T15:18:19.201Z,2.20
2018-07-19T15:20:48.364Z,2.20
2018-07-19T15:23:17.485Z,2.20
2018-07-19T15:25:46.812Z,2.15
2018-07-19T15:28:16.457Z,2.50
2018-07-19T15:30:45.713Z,2.17
2018-07-19T15:33:14.964Z,2.20
2018-07-19T15:35:44.182Z,2.42
2018-07-19T15:38:13.413Z,1.95
2018-07-19T15:40:42.712Z,2.27
2018-07-19T15:43:12.126Z,2.50
2018-07-19T15:45:41.407Z,2.05
2018-07-19T15:48:11.099Z,2.15
2018-07-19T15:50:40.790Z,2.27
2018-07-19T15:53:10.008Z,2.12
2018-07-19T15:55:39.205Z,2.35
2018-07-19T15:58:08.363Z,2.50
2018-07-19T16:00:37.603Z,2.30
2018-07-19T16:03:06.861Z,2.30
2018-07-19T16:05:36.814Z,3.40
2018-07-19T16:08:05.992Z,2.30
2018-07-19T16:10:35.237Z,1.95
2018-07-19T16:13:04.496Z,2.30
2018-07-19T16:15:33.705Z,2.17
2018-07-19T16:18:02.871Z,2.20
2018-07-19T16:20:32.509Z,2.58
2018-07-19T16:23:01.840Z,2.17
2018-07-19T16:25:31.165Z,2.37
2018-07-19T16:28:00.512Z,2.10
2018-07-19T16:30:30.803Z,2.10
2018-07-19T16:33:00.259Z,2.30
2018-07-19T16:35:29.640Z,2.25
2018-07-19T16:37:58.837Z,2.25
2018-07-19T16:40:28.533Z,2.40
2018-07-19T16:42:57.936Z,2.35
2018-07-19T16:45:27.233Z,2.33
2018-07-19T16:47:56.588Z,2.50
2018-07-19T16:50:26.310Z,1.87
2018-07-19T16:52:55.663Z,2.42
2018-07-19T16:55:25.019Z,2.22
2018-07-19T16:57:54.653Z,2.40
2018-07-19T17:00:24.092Z,1.98
2018-07-19T17:02:53.557Z,2.27
2018-07-19T17:05:22.869Z,2.30
2018-07-19T17:07:52.197Z,2.30
2018-07-19T17:10:21.417Z,2.02
2018-07-19T17:12:50.706Z,2.27
2018-07-19T17:15:20.201Z,2.15
2018-07-19T17:17:49.557Z,2.47
2018-07-19T17:20:19.108Z,2.10
2018-07-19T17:22:48.505Z,2.30
2018-07-19T17:25:17.832Z,2.20
2018-07-19T17:27:47.061Z,2.02
2018-07-19T17:30:16.450Z,2.30
2018-07-19T17:32:45.717Z,2.20
2018-07-19T17:35:14.945Z,2.40
2018-07-19T17:37:44.282Z,2.40
2018-07-19T17:40:13.707Z,2.10
2018-07-19T17:42:43.333Z,2.47
2018-07-19T17:45:12.613Z,2.10
2018-07-19T17:47:42.197Z,2.40
2018-07-19T17:50:11.824Z,2.37
2018-07-19T17:52:41.145Z,2.30
2018-07-19T17:55:10.841Z,2.22
2018-07-19T17:57:40.545Z,2.50
2018-07-19T18:00:10.355Z,2.02
2018-07-19T18:02:39.960Z,2.40
2018-07-19T18:05:09.322Z,2.10
2018-07-19T18:07:38.614Z,2.10
2018-07-19T18:10:07.874Z,1.98
2018-07-19T18:12:37.772Z,2.20
2018-07-19T18:15:07.117Z,2.65
2018-07-19T18:17:36.465Z,2.45
2018-07-19T18:20:06.025Z,3.33
2018-07-19T18:22:36.298Z,2.75
2018-07-19T18:25:06.281Z,2.58
2018-07-19T18:27:35.729Z,2.62
2018-07-19T18:30:06.958Z,3.60
2018-07-19T18:32:36.213Z,2.50
2018-07-19T18:35:05.476Z,2.62
2018-07-19T18:37:34.784Z,3.45
2018-07-19T18:40:04.102Z,4.00
2018-07-19T18:42:33.459Z,4.22
2018-07-19T18:45:02.746Z,3.75
2018-07-19T18:47:32.089Z,3.92
2018-07-19T18:50:01.237Z,3.62
2018-07-19T18:52:30.557Z,4.25
2018-07-19T18:54:59.903Z,3.35
2018-07-19T18:57:29.246Z,2.67
2018-07-19T18:59:58.548Z,2.77
2018-07-19T19:02:27.847Z,2.90
2018-07-19T19:04:57.101Z,3.03
2018-07-19T19:07:26.402Z,3.02
2018-07-19T19:09:55.602Z,2.70
2018-07-19T19:12:24.926Z,2.70
2018-07-19T19:14:54.138Z,2.77
2018-07-19T19:17:23.390Z,3.08
2018-07-19T19:19:52.728Z,3.25
2018-07-19T19:22:21.986Z,3.62
2018-07-19T19:24:51.229Z,3.60
2018-07-19T19:27:20.392Z,3.00
2018-07-19T19:29:49.612Z,3.60
2018-07-19T19:32:18.900Z,3.12
2018-07-19T19:34:48.351Z,3.30
2018-07-19T19:37:17.850Z,3.35
2018-07-19T19:39:47.139Z,3.62
2018-07-19T19:42:16.332Z,3.15
2018-07-19T19:44:46.538Z,2.70
2018-07-19T19:47:15.833Z,2.60
2018-07-19T19:49:45.023Z,2.85
2018-07-19T19:52:14.173Z,2.75
2018-07-19T19:54:43.553Z,2.62
2018-07-19T19:57:12.812Z,3.10
2018-07-19T19:59:42.029Z,2.75
2018-07-19T20:02:11.469Z,2.87
2018-07-19T20:04:40.686Z,3.22
2018-07-19T20:07:10.297Z,2.67
2018-07-19T20:09:39.487Z,2.80
2018-07-19T20:12:08.744Z,3.15
2018-07-19T20:14:38.090Z,3.10
2018-07-19T20:17:07.260Z,3.72
2018-07-19T20:19:36.581Z,3.47
2018-07-19T20:22:05.831Z,4.03
2018-07-19T20:24:35.265Z,3.67
2018-07-19T20:27:04.673Z,3.33
2018-07-19T20:29:33.949Z,4.70
2018-07-19T20:32:03.122Z,4.20
2018-07-19T20:34:32.485Z,2.72
2018-07-19T20:37:01.744Z,3.00
2018-07-19T20:39:31.122Z,2.60
2018-07-19T20:42:00.345Z,2.50
2018-07-19T20:44:29.574Z,2.60
2018-07-19T20:46:58.744Z,2.52
2018-07-19T20:49:28.116Z,2.50
2018-07-19T20:51:57.325Z,2.50
2018-07-19T20:54:27.554Z,2.60
2018-07-19T20:56:56.895Z,2.40
2018-07-19T20:59:26.156Z,2.60
2018-07-19T21:01:55.415Z,2.63
2018-07-19T21:04:24.652Z,2.50
2018-07-19T21:06:53.917Z,2.40
2018-07-19T21:09:23.158Z,2.57
2018-07-19T21:11:52.308Z,2.55
2018-07-19T21:14:21.573Z,2.70
2018-07-19T21:16:51.271Z,2.47
2018-07-19T21:19:20.628Z,2.60
2018-07-19T21:21:49.800Z,2.60
2018-07-19T21:24:19.062Z,2.50
2018-07-19T21:26:48.205Z,2.57
2018-07-19T21:29:17.562Z,2.50
2018-07-19T21:31:46.866Z,2.90
2018-07-19T21:34:16.043Z,2.53
2018-07-19T21:36:45.426Z,2.60
2018-07-19T21:39:14.644Z,2.60
2018-07-19T21:41:43.792Z,2.70
2018-07-19T21:44:13.263Z,2.90
2018-07-19T21:46:42.388Z,2.57
2018-07-19T21:49:11.510Z,2.93
2018-07-19T21:51:40.760Z,2.40
2018-07-19T21:54:10.038Z,2.90
2018-07-19T21:56:39.231Z,3.00
2018-07-19T21:59:08.418Z,2.70
2018-07-19T22:01:42.930Z,2.90
2018-07-19T22:04:12.363Z,3.03
2018-07-19T22:06:41.774Z,3.20
2018-07-19T22:09:12.525Z,2.97
2018-07-19T22:11:41.751Z,2.77
2018-07-19T22:14:11.075Z,2.80
2018-07-19T22:16:40.921Z,2.90
2018-07-19T22:19:10.146Z,2.60
2018-07-19T22:21:39.409Z,2.50
2018-07-19T22:24:08.590Z,2.60
2018-07-19T22:26:37.723Z,3.00
2018-07-19T22:29:06.868Z,3.00
2018-07-19T22:31:36.029Z,2.80
2018-07-19T22:34:05.225Z,2.87
2018-07-19T22:36:34.431Z,3.10
2018-07-19T22:39:03.890Z,2.47
2018-07-19T22:41:33.028Z,3.20
2018-07-19T22:44:02.205Z,3.07
2018-07-19T22:46:31.364Z,3.00
2018-07-19T22:49:00.796Z,3.10
2018-07-19T22:51:30.020Z,3.00
2018-07-19T22:53:59.160Z,3.10
2018-07-19T22:56:28.380Z,3.13
2018-07-19T22:58:57.530Z,2.90
2018-07-19T23:01:26.704Z,2.80
2018-07-19T23:03:55.856Z,3.30
2018-07-19T23:06:25.027Z,3.30
2018-07-19T23:08:55.280Z,3.37
2018-07-19T23:11:24.587Z,3.70
2018-07-19T23:13:53.708Z,3.47
2018-07-19T23:16:23.069Z,3.30
2018-07-19T23:18:52.185Z,3.60
2018-07-19T23:21:21.449Z,3.30
2018-07-19T23:23:50.611Z,3.47
2018-07-19T23:26:19.793Z,3.40
2018-07-19T23:28:49.171Z,3.50
2018-07-19T23:31:18.432Z,3.30
2018-07-19T23:33:47.641Z,3.27
2018-07-19T23:36:52.777Z,3.50
2018-07-19T23:39:39.632Z,3.20
2018-07-19T23:42:15.134Z,3.37
2018-07-19T23:44:49.033Z,3.10
2018-07-19T23:47:22.048Z,3.00
2018-07-19T23:49:51.461Z,3.47
2018-07-19T23:52:20.584Z,3.23
2018-07-19T23:54:49.845Z,3.30
2018-07-19T23:57:19.093Z,3.53
2018-07-19T23:59:48.273Z,3.70
